Time;durP1;ratioP1;P1;durP2;ratioP2;P2;SDS_P1;SDS_P2;PMS_P1;PMS_P2;Temp;Humidity;BMP_temperature;BMP_pressure;BME280_temperature;BME280_humidity;BME280_pressure;Samples;Min_cycle;Max_cycle;Signal;HPM_P1;HPM_P2
2022/10/31 00:01:11;;;;;;;;;;;12.30;98.90;;;;;;5002282;28;1264;-71
2022/10/31 00:03:38;;;;;;;;;;;12.30;98.80;;;;;;5001411;28;1168;-72
2022/10/31 00:06:06;;;;;;;;;;;12.20;98.70;;;;;;4996502;28;1437;-71
2022/10/31 00:08:35;;;;;;;;;;;12.20;98.70;;;;;;4997901;28;1914;-71
2022/10/31 00:11:02;;;;;;;;;;;12.20;98.70;;;;;;5005947;28;1481;-71
2022/10/31 00:13:30;;;;;;;;;;;12.20;98.70;;;;;;4999159;28;1144;-71
2022/10/31 00:15:58;;;;;;;;;;;12.20;98.70;;;;;;4992186;28;1000;-72
2022/10/31 00:18:25;;;;;;;;;;;12.20;98.60;;;;;;4997401;28;1065;-71
2022/10/31 00:20:59;;;;;;;;;;;12.20;98.70;;;;;;5003916;28;1372;-70
2022/10/31 00:23:26;;;;;;;;;;;12.10;98.60;;;;;;5002453;28;1049;-70
2022/10/31 00:26:00;;;;;;;;;;;12.10;98.60;;;;;;5006875;28;1017;-72
2022/10/31 00:28:30;;;;;;;;;;;12.10;98.60;;;;;;5007379;28;1017;-70
2022/10/31 00:30:59;;;;;;;;;;;12.10;98.50;;;;;;5013114;28;1918;-72
2022/10/31 00:33:26;;;;;;;;;;;12.10;98.50;;;;;;5006396;28;1370;-71
2022/10/31 00:35:54;;;;;;;;;;;12.10;98.50;;;;;;5001890;28;819;-74
2022/10/31 00:38:22;;;;;;;;;;;12.10;98.50;;;;;;5004257;28;1504;-74
2022/10/31 00:40:49;;;;;;;;;;;12.10;98.80;;;;;;5006575;28;1251;-74
2022/10/31 00:43:18;;;;;;;;;;;12.10;98.90;;;;;;5006812;28;909;-74
2022/10/31 00:45:46;;;;;;;;;;;12.10;98.80;;;;;;4999478;28;997;-74
2022/10/31 00:48:14;;;;;;;;;;;12.10;98.80;;;;;;5000100;28;1168;-74
2022/10/31 00:50:41;;;;;;;;;;;12.10;98.70;;;;;;4995517;28;1946;-74
2022/10/31 00:53:09;;;;;;;;;;;12.10;98.70;;;;;;4998628;28;1061;-74
2022/10/31 00:55:37;;;;;;;;;;;12.00;98.50;;;;;;5001434;28;985;-71
2022/10/31 00:58:04;;;;;;;;;;;12.10;98.60;;;;;;4999529;28;1097;-70
2022/10/31 01:00:33;;;;;;;;;;;12.10;99.40;;;;;;4997763;28;2023;-71
2022/10/31 01:03:01;;;;;;;;;;;12.10;99.20;;;;;;4998360;28;1009;-71
2022/10/31 01:05:29;;;;;;;;;;;12.10;99.10;;;;;;4991276;28;2158;-71
2022/10/31 01:07:57;;;;;;;;;;;12.00;99.20;;;;;;5007793;28;2198;-71
2022/10/31 01:10:24;;;;;;;;;;;12.10;99.90;;;;;;5016620;28;2039;-70
2022/10/31 01:12:52;;;;;;;;;;;12.20;99.90;;;;;;5002495;28;2020;-73
2022/10/31 01:15:21;;;;;;;;;;;12.30;99.90;;;;;;4991954;28;2020;-73
2022/10/31 01:17:50;;;;;;;;;;;12.40;99.90;;;;;;4992126;28;2154;-75
2022/10/31 01:20:18;;;;;;;;;;;12.60;99.90;;;;;;4998979;28;1540;-73
2022/10/31 01:22:45;;;;;;;;;;;12.70;99.90;;;;;;5002932;28;2103;-74
2022/10/31 01:25:13;;;;;;;;;;;12.70;99.90;;;;;;5001350;28;1000;-74
2022/10/31 01:27:41;;;;;;;;;;;12.90;99.90;;;;;;5003519;28;1044;-73
2022/10/31 01:30:09;;;;;;;;;;;12.90;99.90;;;;;;4994970;28;1989;-71
2022/10/31 01:32:36;;;;;;;;;;;13.10;99.90;;;;;;5000896;28;1477;-71
2022/10/31 01:35:06;;;;;;;;;;;13.20;99.90;;;;;;4999367;28;1034;-71
2022/10/31 01:37:33;;;;;;;;;;;13.40;99.90;;;;;;5000124;28;1109;-71
2022/10/31 01:40:01;;;;;;;;;;;13.30;99.90;;;;;;5000516;28;995;-72
2022/10/31 01:42:29;;;;;;;;;;;13.50;99.90;;;;;;5004903;28;2140;-72
2022/10/31 01:44:58;;;;;;;;;;;13.50;99.90;;;;;;4998629;28;1025;-72
2022/10/31 01:47:41;;;;;;;;;;;13.50;99.90;;;;;;4998053;28;1041;-73
2022/10/31 01:50:16;;;;;;;;;;;13.60;99.90;;;;;;5003272;28;1923;-73
2022/10/31 01:52:45;;;;;;;;;;;13.90;99.90;;;;;;4990634;28;1461;-72
2022/10/31 01:55:14;;;;;;;;;;;13.50;99.90;;;;;;5002977;28;1085;-72
2022/10/31 01:57:45;;;;;;;;;;;13.60;99.90;;;;;;5004004;28;1173;-72
2022/10/31 02:00:13;;;;;;;;;;;13.50;99.90;;;;;;5005150;28;2051;-71
2022/10/31 02:02:42;;;;;;;;;;;13.40;99.90;;;;;;5008341;28;1272;-71
2022/10/31 02:05:11;;;;;;;;;;;13.40;99.90;;;;;;5005880;28;1080;-72
2022/10/31 02:07:42;;;;;;;;;;;13.60;99.90;;;;;;5004638;28;1126;-71
2022/10/31 02:10:10;;;;;;;;;;;13.60;99.90;;;;;;5000004;28;2002;-72
2022/10/31 02:12:38;;;;;;;;;;;13.80;99.90;;;;;;4999378;28;1371;-72
2022/10/31 02:18:06;;;;;;;;;;;13.70;99.90;;;;;;5803806;22;1723;-88
2022/10/31 02:20:39;;;;;;;;;;;13.80;99.90;;;;;;5024496;28;1417;-86
2022/10/31 02:23:22;;;;;;;;;;;13.80;99.90;;;;;;5024552;28;977;-87
2022/10/31 02:26:05;;;;;;;;;;;14.00;99.90;;;;;;5027815;28;1456;-89
2022/10/31 02:28:39;;;;;;;;;;;14.10;99.90;;;;;;5031132;28;1394;-87
2022/10/31 02:31:16;;;;;;;;;;;13.90;99.90;;;;;;5026115;28;1894;-88
2022/10/31 02:33:46;;;;;;;;;;;13.50;99.90;;;;;;5025578;28;1536;-88
2022/10/31 02:36:19;;;;;;;;;;;13.60;99.90;;;;;;5023387;28;1612;-87
2022/10/31 02:39:01;;;;;;;;;;;13.70;99.90;;;;;;5044340;28;1421;-87
2022/10/31 02:41:33;;;;;;;;;;;13.60;99.90;;;;;;5035529;28;1529;-89
2022/10/31 02:44:06;;;;;;;;;;;14.00;99.90;;;;;;5032663;28;1735;-89
2022/10/31 02:46:39;;;;;;;;;;;13.90;99.90;;;;;;5021029;28;1564;-89
2022/10/31 02:49:09;;;;;;;;;;;13.70;99.90;;;;;;5019726;28;1392;-88
2022/10/31 02:51:37;;;;;;;;;;;13.70;99.90;;;;;;5025384;28;1910;-88
2022/10/31 02:54:05;;;;;;;;;;;13.80;99.90;;;;;;5023466;28;1522;-87
2022/10/31 02:56:33;;;;;;;;;;;13.60;99.90;;;;;;5020481;28;1375;-86
2022/10/31 02:59:02;;;;;;;;;;;13.70;99.90;;;;;;5023960;28;1276;-87
2022/10/31 03:01:40;;;;;;;;;;;13.80;99.90;;;;;;5013423;28;1354;-88
2022/10/31 03:04:17;;;;;;;;;;;13.60;99.90;;;;;;5021638;28;1520;-87
2022/10/31 03:06:46;;;;;;;;;;;13.50;99.90;;;;;;5013924;28;1580;-87
2022/10/31 03:09:21;;;;;;;;;;;13.50;99.90;;;;;;5021402;28;1578;-87
2022/10/31 03:11:54;;;;;;;;;;;13.60;99.90;;;;;;5023184;28;1906;-86
2022/10/31 03:14:24;;;;;;;;;;;13.50;99.90;;;;;;5021739;28;1033;-87
2022/10/31 03:16:55;;;;;;;;;;;13.50;99.90;;;;;;5020885;28;1701;-89
2022/10/31 03:19:26;;;;;;;;;;;13.40;99.90;;;;;;5021875;28;1717;-88
2022/10/31 03:21:57;;;;;;;;;;;13.60;99.90;;;;;;5021939;28;1469;-87
2022/10/31 03:24:26;;;;;;;;;;;13.40;99.90;;;;;;5028783;28;2284;-88
2022/10/31 03:26:55;;;;;;;;;;;13.40;99.90;;;;;;5023684;28;1394;-89
2022/10/31 03:29:25;;;;;;;;;;;13.40;99.90;;;;;;5021273;28;1392;-88
2022/10/31 03:31:58;;;;;;;;;;;13.40;99.90;;;;;;5024459;28;1972;-87
2022/10/31 03:34:26;;;;;;;;;;;13.30;99.90;;;;;;5013958;28;1634;-89
2022/10/31 03:36:56;;;;;;;;;;;13.30;99.90;;;;;;5022231;28;985;-88
2022/10/31 03:39:24;;;;;;;;;;;13.20;99.90;;;;;;5029128;28;1599;-89
2022/10/31 03:41:55;;;;;;;;;;;13.40;99.90;;;;;;5039465;28;1524;-87
2022/10/31 03:44:24;;;;;;;;;;;13.30;99.90;;;;;;5025786;28;1513;-89
2022/10/31 03:46:52;;;;;;;;;;;13.30;99.90;;;;;;5013921;28;918;-89
2022/10/31 03:49:23;;;;;;;;;;;13.20;99.90;;;;;;5023878;28;1315;-88
2022/10/31 03:51:58;;;;;;;;;;;13.50;99.90;;;;;;5026847;28;2188;-86
2022/10/31 03:54:27;;;;;;;;;;;13.30;99.90;;;;;;5022692;28;1096;-86
2022/10/31 03:56:57;;;;;;;;;;;13.10;99.90;;;;;;5020985;28;1610;-85
2022/10/31 03:59:27;;;;;;;;;;;13.50;99.90;;;;;;5017916;28;1677;-85
2022/10/31 04:01:58;;;;;;;;;;;13.30;99.90;;;;;;5020386;28;1532;-86
2022/10/31 04:04:28;;;;;;;;;;;13.30;99.90;;;;;;5015293;28;1605;-85
2022/10/31 04:06:57;;;;;;;;;;;13.20;99.90;;;;;;5014745;28;1057;-88
2022/10/31 04:09:26;;;;;;;;;;;13.30;99.90;;;;;;5015528;28;1732;-87
2022/10/31 04:11:55;;;;;;;;;;;13.50;99.90;;;;;;5017766;28;2010;-87
2022/10/31 04:14:24;;;;;;;;;;;13.10;99.90;;;;;;5016615;28;1582;-87
2022/10/31 04:16:52;;;;;;;;;;;13.10;99.90;;;;;;5019457;28;987;-87
2022/10/31 04:19:20;;;;;;;;;;;13.20;99.90;;;;;;5019465;28;2411;-87
2022/10/31 04:21:49;;;;;;;;;;;13.30;99.90;;;;;;5019264;28;977;-87
2022/10/31 04:24:18;;;;;;;;;;;13.50;99.90;;;;;;5019126;28;1543;-88
2022/10/31 04:26:45;;;;;;;;;;;13.40;99.90;;;;;;5021200;28;1720;-87
2022/10/31 04:29:13;;;;;;;;;;;13.10;99.90;;;;;;5019298;28;1498;-87
2022/10/31 04:31:41;;;;;;;;;;;13.10;99.90;;;;;;5023621;28;2364;-87
2022/10/31 04:34:08;;;;;;;;;;;13.20;99.90;;;;;;5019795;28;1725;-86
2022/10/31 04:36:36;;;;;;;;;;;13.10;99.90;;;;;;5018603;28;1503;-84
2022/10/31 04:39:05;;;;;;;;;;;13.10;99.90;;;;;;5022751;28;1301;-84
2022/10/31 04:41:33;;;;;;;;;;;13.30;99.90;;;;;;5030819;28;1068;-84
2022/10/31 04:44:00;;;;;;;;;;;13.60;99.90;;;;;;5028657;28;1719;-85
2022/10/31 04:46:28;;;;;;;;;;;13.20;99.90;;;;;;5009740;28;1414;-86
2022/10/31 04:48:56;;;;;;;;;;;13.30;99.90;;;;;;5014075;28;1342;-85
2022/10/31 04:51:23;;;;;;;;;;;13.40;99.90;;;;;;5018908;28;1902;-85
2022/10/31 04:53:51;;;;;;;;;;;13.40;99.90;;;;;;5023121;28;1662;-86
2022/10/31 04:56:20;;;;;;;;;;;13.40;99.90;;;;;;5024933;28;1562;-84
2022/10/31 04:58:51;;;;;;;;;;;13.40;99.90;;;;;;5031769;28;1246;-90
2022/10/31 05:01:19;;;;;;;;;;;13.60;99.90;;;;;;5013235;28;1692;-85
2022/10/31 05:03:46;;;;;;;;;;;13.60;99.90;;;;;;5015057;28;969;-85
2022/10/31 05:06:16;;;;;;;;;;;13.70;99.90;;;;;;5013053;28;1405;-85
2022/10/31 05:08:43;;;;;;;;;;;13.70;99.90;;;;;;5030121;28;1606;-84
2022/10/31 05:11:11;;;;;;;;;;;13.70;99.90;;;;;;5024211;28;937;-89
2022/10/31 05:13:41;;;;;;;;;;;13.90;99.90;;;;;;5016740;28;1949;-87
2022/10/31 05:16:11;;;;;;;;;;;13.60;99.90;;;;;;5020296;28;1566;-85
2022/10/31 05:18:39;;;;;;;;;;;13.70;99.90;;;;;;5019753;28;1563;-85
2022/10/31 05:21:06;;;;;;;;;;;13.90;99.90;;;;;;5021528;28;1092;-84
2022/10/31 05:23:34;;;;;;;;;;;13.60;99.90;;;;;;5019136;28;969;-85
2022/10/31 05:26:03;;;;;;;;;;;13.70;99.90;;;;;;5018941;28;1574;-85
2022/10/31 05:28:30;;;;;;;;;;;13.60;99.90;;;;;;5017702;28;1272;-83
2022/10/31 05:30:59;;;;;;;;;;;13.60;99.90;;;;;;5016403;28;965;-83
2022/10/31 05:33:27;;;;;;;;;;;13.50;99.90;;;;;;5014172;28;1898;-85
2022/10/31 05:35:55;;;;;;;;;;;13.60;99.90;;;;;;5020070;28;989;-84
2022/10/31 05:38:22;;;;;;;;;;;13.60;99.90;;;;;;5016662;28;1903;-87
2022/10/31 05:40:50;;;;;;;;;;;13.60;99.90;;;;;;5014424;28;1028;-86
2022/10/31 05:43:18;;;;;;;;;;;13.50;99.90;;;;;;5022023;28;1010;-85
2022/10/31 05:45:46;;;;;;;;;;;13.60;99.90;;;;;;5034855;28;1524;-87
2022/10/31 05:48:15;;;;;;;;;;;14.00;99.90;;;;;;5017485;28;2411;-82
2022/10/31 05:50:52;;;;;;;;;;;13.70;99.90;;;;;;5009451;28;1426;-86
2022/10/31 05:53:22;;;;;;;;;;;13.70;99.90;;;;;;5008849;28;1999;-86
2022/10/31 05:55:55;;;;;;;;;;;14.00;99.90;;;;;;5013107;28;1469;-85
2022/10/31 05:58:26;;;;;;;;;;;13.90;99.90;;;;;;5019445;28;1367;-86
2022/10/31 06:00:54;;;;;;;;;;;14.00;99.90;;;;;;5014849;28;1417;-84
2022/10/31 06:03:23;;;;;;;;;;;13.70;99.90;;;;;;5013808;28;1121;-82
2022/10/31 06:05:50;;;;;;;;;;;13.70;99.90;;;;;;5014214;28;1049;-87
2022/10/31 06:08:22;;;;;;;;;;;13.70;99.90;;;;;;5016997;28;1671;-84
2022/10/31 06:10:49;;;;;;;;;;;13.90;99.90;;;;;;5012589;28;1714;-83
2022/10/31 06:13:17;;;;;;;;;;;13.70;99.90;;;;;;5016685;28;1910;-83
2022/10/31 06:15:45;;;;;;;;;;;13.70;99.90;;;;;;5006572;28;1401;-84
2022/10/31 06:18:17;;;;;;;;;;;13.70;99.90;;;;;;5015196;28;1425;-88
2022/10/31 06:20:46;;;;;;;;;;;13.90;99.90;;;;;;5008911;28;1445;-85
2022/10/31 06:23:14;;;;;;;;;;;13.70;99.90;;;;;;5021282;28;1508;-85
2022/10/31 06:25:42;;;;;;;;;;;13.80;99.90;;;;;;5024555;28;1414;-83
2022/10/31 06:28:10;;;;;;;;;;;14.10;99.90;;;;;;5018734;28;1667;-85
2022/10/31 06:30:40;;;;;;;;;;;13.90;99.90;;;;;;5016085;28;977;-84
2022/10/31 06:33:08;;;;;;;;;;;13.80;99.90;;;;;;5013228;28;2028;-83
2022/10/31 06:35:36;;;;;;;;;;;13.90;99.90;;;;;;5020132;28;973;-82
2022/10/31 06:38:05;;;;;;;;;;;13.80;99.90;;;;;;5016024;28;1524;-84
2022/10/31 06:40:33;;;;;;;;;;;13.80;99.90;;;;;;5019726;28;1370;-85
2022/10/31 06:43:17;;;;;;;;;;;13.80;99.90;;;;;;5026289;28;965;-85
2022/10/31 06:45:48;;;;;;;;;;;14.10;99.90;;;;;;5029325;28;910;-84
2022/10/31 06:48:16;;;;;;;;;;;13.80;99.90;;;;;;5033622;28;1252;-87
2022/10/31 06:50:45;;;;;;;;;;;13.80;99.90;;;;;;5017580;28;1587;-86
2022/10/31 06:53:14;;;;;;;;;;;13.80;99.90;;;;;;5012246;28;1898;-84
2022/10/31 06:55:42;;;;;;;;;;;13.80;99.90;;;;;;5018588;28;1096;-84
2022/10/31 06:58:11;;;;;;;;;;;13.90;99.90;;;;;;5021580;28;1425;-82
2022/10/31 07:00:38;;;;;;;;;;;13.90;99.90;;;;;;5019433;28;965;-85
2022/10/31 07:03:11;;;;;;;;;;;13.90;99.90;;;;;;5024006;28;1566;-84
2022/10/31 07:05:41;;;;;;;;;;;13.90;99.90;;;;;;5013737;28;977;-87
2022/10/31 07:11:03;;;;;;;;;;;14.00;99.90;;;;;;4993433;28;1598;-83
2022/10/31 07:13:34;;;;;;;;;;;13.90;99.90;;;;;;4996162;28;2330;-85
2022/10/31 07:16:02;;;;;;;;;;;13.80;99.90;;;;;;4997257;28;2389;-86
2022/10/31 07:18:30;;;;;;;;;;;13.90;99.90;;;;;;4997289;28;2260;-86
2022/10/31 07:20:58;;;;;;;;;;;13.90;99.90;;;;;;4999509;28;1047;-85
2022/10/31 07:23:25;;;;;;;;;;;14.00;99.90;;;;;;5002016;28;969;-85
2022/10/31 07:25:57;;;;;;;;;;;13.60;99.90;;;;;;4997835;28;1567;-86
2022/10/31 07:28:25;;;;;;;;;;;14.10;99.90;;;;;;4997938;28;1431;-88
2022/10/31 07:30:53;;;;;;;;;;;14.10;99.90;;;;;;4999426;28;1683;-87
2022/10/31 07:33:21;;;;;;;;;;;14.10;99.90;;;;;;4997417;28;1987;-85
2022/10/31 07:35:49;;;;;;;;;;;13.90;99.90;;;;;;5006900;28;1000;-85
2022/10/31 07:38:16;;;;;;;;;;;14.40;99.90;;;;;;5018498;28;2343;-85
2022/10/31 07:40:44;;;;;;;;;;;14.00;99.90;;;;;;5011667;28;1040;-83
2022/10/31 07:43:13;;;;;;;;;;;14.10;99.90;;;;;;5018499;28;1413;-85
2022/10/31 07:45:41;;;;;;;;;;;13.90;99.90;;;;;;5019191;28;1040;-85
2022/10/31 07:48:09;;;;;;;;;;;13.80;99.90;;;;;;5026082;28;990;-84
2022/10/31 07:50:37;;;;;;;;;;;14.30;99.90;;;;;;5027237;28;1464;-85
2022/10/31 07:53:05;;;;;;;;;;;14.30;99.90;;;;;;5022806;28;1903;-85
2022/10/31 07:55:33;;;;;;;;;;;14.30;99.90;;;;;;5027729;28;2193;-84
2022/10/31 07:58:02;;;;;;;;;;;13.80;99.90;;;;;;5021496;28;2526;-86
2022/10/31 08:00:32;;;;;;;;;;;14.00;99.90;;;;;;5023684;28;1413;-84
2022/10/31 08:03:00;;;;;;;;;;;13.80;99.90;;;;;;5022867;28;982;-83
2022/10/31 08:05:29;;;;;;;;;;;13.80;99.90;;;;;;5011348;28;973;-85
2022/10/31 08:07:58;;;;;;;;;;;13.90;99.90;;;;;;5014282;28;1798;-85
2022/10/31 08:10:27;;;;;;;;;;;14.10;99.90;;;;;;5009916;28;1311;-87
2022/10/31 08:12:58;;;;;;;;;;;14.00;99.90;;;;;;5020532;28;1914;-84
2022/10/31 08:15:26;;;;;;;;;;;13.80;99.90;;;;;;5011451;28;1310;-85
2022/10/31 08:18:00;;;;;;;;;;;13.90;99.90;;;;;;5012393;28;1690;-85
2022/10/31 08:20:28;;;;;;;;;;;14.00;99.90;;;;;;5014986;28;1296;-83
2022/10/31 08:22:58;;;;;;;;;;;14.00;99.90;;;;;;5021205;28;1526;-84
2022/10/31 08:25:28;;;;;;;;;;;14.00;99.90;;;;;;5018274;28;1535;-83
2022/10/31 08:28:04;;;;;;;;;;;14.20;99.90;;;;;;5015236;28;1433;-85
2022/10/31 08:30:36;;;;;;;;;;;14.20;99.90;;;;;;5017902;28;2493;-85
2022/10/31 08:33:06;;;;;;;;;;;14.10;99.90;;;;;;5015908;28;2402;-83
2022/10/31 08:35:34;;;;;;;;;;;14.10;99.90;;;;;;5014434;28;988;-85
2022/10/31 08:38:02;;;;;;;;;;;14.20;99.90;;;;;;5012707;28;2521;-83
2022/10/31 08:40:31;;;;;;;;;;;14.10;99.90;;;;;;5013276;28;1488;-84
2022/10/31 08:43:00;;;;;;;;;;;14.10;99.90;;;;;;5013260;28;2359;-83
2022/10/31 08:45:28;;;;;;;;;;;14.20;99.90;;;;;;5013807;28;1095;-85
2022/10/31 08:47:59;;;;;;;;;;;14.30;99.90;;;;;;5009783;28;1199;-84
2022/10/31 08:50:29;;;;;;;;;;;14.50;99.90;;;;;;5024215;28;1209;-81
2022/10/31 08:53:00;;;;;;;;;;;14.30;99.90;;;;;;5024514;28;1555;-83
2022/10/31 08:55:34;;;;;;;;;;;14.30;99.90;;;;;;5014861;28;2271;-86
2022/10/31 08:58:02;;;;;;;;;;;14.70;99.90;;;;;;5013264;28;1072;-83
2022/10/31 09:00:30;;;;;;;;;;;14.40;99.90;;;;;;5014144;28;1319;-81
2022/10/31 09:02:59;;;;;;;;;;;14.50;99.90;;;;;;5014581;28;981;-83
2022/10/31 09:05:26;;;;;;;;;;;14.70;99.90;;;;;;5020292;28;947;-82
2022/10/31 09:07:57;;;;;;;;;;;14.70;99.70;;;;;;5017060;28;2423;-85
2022/10/31 09:10:27;;;;;;;;;;;14.50;99.90;;;;;;5016835;28;1363;-83
2022/10/31 09:12:58;;;;;;;;;;;14.50;99.90;;;;;;5016961;28;2444;-83
2022/10/31 09:15:26;;;;;;;;;;;14.60;99.90;;;;;;5015533;28;1914;-85
2022/10/31 09:17:53;;;;;;;;;;;14.60;99.90;;;;;;5015452;28;1042;-84
2022/10/31 09:20:24;;;;;;;;;;;14.70;99.90;;;;;;5018952;28;1555;-83
2022/10/31 09:22:58;;;;;;;;;;;14.80;99.30;;;;;;5010016;28;974;-83
2022/10/31 09:25:26;;;;;;;;;;;14.90;99.70;;;;;;5014020;28;1209;-83
2022/10/31 09:27:56;;;;;;;;;;;14.80;99.80;;;;;;5006285;28;1021;-82
2022/10/31 09:30:24;;;;;;;;;;;14.80;99.30;;;;;;5011767;28;2261;-82
2022/10/31 09:32:58;;;;;;;;;;;14.90;99.30;;;;;;5013192;28;2410;-82
2022/10/31 09:35:26;;;;;;;;;;;14.90;99.30;;;;;;5011858;28;1947;-83
2022/10/31 09:37:54;;;;;;;;;;;15.10;98.60;;;;;;5015686;28;1508;-83
2022/10/31 09:40:25;;;;;;;;;;;15.10;99.00;;;;;;5010813;28;2410;-84
2022/10/31 09:42:56;;;;;;;;;;;14.70;99.00;;;;;;5012812;28;2360;-84
2022/10/31 09:45:28;;;;;;;;;;;14.40;99.40;;;;;;5012330;28;2477;-84
2022/10/31 09:48:04;;;;;;;;;;;14.70;99.90;;;;;;5018461;28;1681;-85
2022/10/31 09:50:38;;;;;;;;;;;14.80;99.80;;;;;;5011140;28;1500;-87
2022/10/31 09:53:10;;;;;;;;;;;14.90;99.50;;;;;;5024189;28;1737;-86
2022/10/31 09:55:41;;;;;;;;;;;15.30;99.20;;;;;;5019476;28;1997;-86
2022/10/31 09:58:15;;;;;;;;;;;15.30;99.00;;;;;;5008988;28;1234;-84
2022/10/31 10:00:44;;;;;;;;;;;15.10;98.80;;;;;;5016093;28;2007;-87
2022/10/31 10:03:15;;;;;;;;;;;15.20;98.70;;;;;;5020774;28;1523;-86
2022/10/31 10:05:48;;;;;;;;;;;15.10;98.60;;;;;;5017124;28;1395;-84
2022/10/31 10:08:19;;;;;;;;;;;15.30;98.90;;;;;;5014301;28;2347;-86
2022/10/31 10:11:04;;;;;;;;;;;15.10;98.20;;;;;;5010401;28;1548;-86
2022/10/31 10:14:05;;;;;;;;;;;15.10;98.60;;;;;;5015762;28;740;-85
2022/10/31 10:16:54;;;;;;;;;;;15.00;98.10;;;;;;5019396;28;1615;-88
2022/10/31 10:19:30;;;;;;;;;;;15.10;98.30;;;;;;5013083;28;2269;-87
2022/10/31 10:22:02;;;;;;;;;;;15.20;98.30;;;;;;5020026;28;981;-88
2022/10/31 10:24:35;;;;;;;;;;;15.40;97.50;;;;;;5025276;28;1389;-86
2022/10/31 10:27:12;;;;;;;;;;;15.30;97.80;;;;;;5022314;28;1068;-86
2022/10/31 10:29:48;;;;;;;;;;;15.40;98.10;;;;;;5023470;28;1585;-86
2022/10/31 10:32:20;;;;;;;;;;;15.50;97.60;;;;;;5018752;28;1950;-85
2022/10/31 10:35:16;;;;;;;;;;;15.30;97.90;;;;;;5015961;28;1982;-87
2022/10/31 10:37:45;;;;;;;;;;;15.40;97.50;;;;;;5023445;28;1550;-88
2022/10/31 10:40:16;;;;;;;;;;;15.30;97.40;;;;;;5021035;28;1602;-88
2022/10/31 10:48:29;;;;;;;;;;;15.00;96.90;;;;;;5021000;28;1386;-84
2022/10/31 10:50:58;;;;;;;;;;;15.30;97.20;;;;;;5021451;28;1963;-87
2022/10/31 10:53:35;;;;;;;;;;;14.90;97.00;;;;;;5020848;28;1189;-88
2022/10/31 10:56:12;;;;;;;;;;;15.50;96.60;;;;;;5034846;28;1989;-89
2022/10/31 10:58:42;;;;;;;;;;;15.20;96.40;;;;;;5012954;28;1379;-87
2022/10/31 11:01:15;;;;;;;;;;;15.00;96.50;;;;;;5013171;28;1582;-89
2022/10/31 11:03:42;;;;;;;;;;;15.40;96.30;;;;;;5004922;28;1454;-86
2022/10/31 11:06:21;;;;;;;;;;;15.40;95.70;;;;;;5012281;28;1683;-89
2022/10/31 11:08:50;;;;;;;;;;;15.10;96.30;;;;;;5017959;28;1310;-86
2022/10/31 11:11:26;;;;;;;;;;;15.10;95.40;;;;;;5022408;28;1549;-88
2022/10/31 11:14:00;;;;;;;;;;;15.20;95.70;;;;;;5027033;28;1560;-87
2022/10/31 11:16:37;;;;;;;;;;;15.30;95.70;;;;;;5018518;28;1977;-84
2022/10/31 11:19:09;;;;;;;;;;;15.60;95.30;;;;;;5026053;28;1556;-86
2022/10/31 11:21:37;;;;;;;;;;;15.30;95.10;;;;;;5019999;28;1211;-88
2022/10/31 11:24:13;;;;;;;;;;;15.30;94.30;;;;;;5020555;28;1547;-83
2022/10/31 11:26:42;;;;;;;;;;;15.30;94.90;;;;;;5020232;28;1610;-84
2022/10/31 11:29:14;;;;;;;;;;;15.40;95.30;;;;;;5025136;28;1577;-86
2022/10/31 11:32:12;;;;;;;;;;;15.50;95.10;;;;;;5024359;28;1917;-88
2022/10/31 11:34:46;;;;;;;;;;;15.90;95.20;;;;;;5024013;28;1910;-88
2022/10/31 11:37:45;;;;;;;;;;;16.10;93.60;;;;;;5034003;28;1564;-91
2022/10/31 11:40:32;;;;;;;;;;;16.20;93.60;;;;;;5031291;28;1724;-88
2022/10/31 11:43:00;;;;;;;;;;;16.30;93.30;;;;;;5027386;28;1591;-86
2022/10/31 11:45:47;;;;;;;;;;;16.50;92.20;;;;;;5023757;28;1596;-88
2022/10/31 11:48:17;;;;;;;;;;;16.50;93.10;;;;;;5023464;28;1569;-88
2022/10/31 11:50:49;;;;;;;;;;;16.80;93.10;;;;;;5018780;28;1528;-88
2022/10/31 11:56:25;;;;;;;;;;;16.80;93.90;;;;;;5031787;28;1910;-90
2022/10/31 11:58:57;;;;;;;;;;;17.10;93.30;;;;;;5033500;28;1448;-88
2022/10/31 12:01:31;;;;;;;;;;;16.80;92.40;;;;;;5025071;28;1742;-86
2022/10/31 12:04:03;;;;;;;;;;;16.60;92.20;;;;;;5021523;28;1620;-86
2022/10/31 12:09:20;;;;;;;;;;;16.30;92.30;;;;;;5017464;28;1553;-86
2022/10/31 12:11:53;;;;;;;;;;;16.30;92.40;;;;;;5018337;28;1606;-89
2022/10/31 12:14:34;;;;;;;;;;;16.20;92.50;;;;;;5017007;28;1576;-86
2022/10/31 12:17:29;;;;;;;;;;;16.30;92.60;;;;;;5023295;28;1930;-91
2022/10/31 12:20:02;;;;;;;;;;;16.50;93.10;;;;;;5019505;28;1394;-88
2022/10/31 12:22:37;;;;;;;;;;;16.40;92.80;;;;;;5021816;28;1413;-89
2022/10/31 12:25:13;;;;;;;;;;;16.40;93.40;;;;;;5023308;28;1568;-90
2022/10/31 12:27:57;;;;;;;;;;;16.30;93.20;;;;;;5023650;28;1722;-88
2022/10/31 12:30:31;;;;;;;;;;;16.00;93.00;;;;;;5024727;28;1412;-90
2022/10/31 12:33:25;;;;;;;;;;;15.90;92.80;;;;;;5021387;28;1575;-89
2022/10/31 12:36:09;;;;;;;;;;;15.80;93.20;;;;;;5019248;28;1965;-89
2022/10/31 12:41:42;;;;;;;;;;;15.80;93.50;;;;;;5026211;28;1531;-90
2022/10/31 12:44:15;;;;;;;;;;;16.00;93.90;;;;;;5029658;28;1544;-88
2022/10/31 12:47:02;;;;;;;;;;;16.20;94.00;;;;;;5035277;28;1534;-90
2022/10/31 12:52:53;;;;;;;;;;;16.30;93.40;;;;;;5030955;28;1568;-88
2022/10/31 12:55:53;;;;;;;;;;;16.20;93.50;;;;;;5032073;28;1954;-89
2022/10/31 12:58:27;;;;;;;;;;;16.20;93.80;;;;;;5039181;28;1581;-89
2022/10/31 13:01:07;;;;;;;;;;;16.30;93.00;;;;;;5048758;28;1388;-87
2022/10/31 13:03:39;;;;;;;;;;;16.50;93.10;;;;;;5034995;28;1564;-89
2022/10/31 13:06:13;;;;;;;;;;;15.80;92.40;;;;;;5031754;28;1376;-87
2022/10/31 13:08:54;;;;;;;;;;;16.10;92.40;;;;;;5024726;28;1654;-89
2022/10/31 13:11:39;;;;;;;;;;;16.10;91.90;;;;;;5018542;28;1501;-88
2022/10/31 13:14:15;;;;;;;;;;;16.30;92.50;;;;;;5016434;28;1449;-90
2022/10/31 13:16:45;;;;;;;;;;;16.20;92.90;;;;;;5015512;28;2005;-89
2022/10/31 13:19:18;;;;;;;;;;;16.10;92.20;;;;;;5032236;22;1681;-70
2022/10/31 13:21:54;;;;;;;;;;;15.60;92.80;;;;;;5023489;28;1288;-69
2022/10/31 13:24:24;;;;;;;;;;;15.60;93.30;;;;;;5001173;28;1101;-68
2022/10/31 13:26:54;;;;;;;;;;;15.50;93.20;;;;;;5009072;28;1075;-70
2022/10/31 13:29:25;;;;;;;;;;;15.50;94.20;;;;;;5002149;28;1021;-69
2022/10/31 13:31:59;;;;;;;;;;;15.40;93.40;;;;;;5003637;28;1608;-68
2022/10/31 13:34:29;;;;;;;;;;;15.30;93.40;;;;;;5008331;28;1190;-69
2022/10/31 13:37:02;;;;;;;;;;;15.20;93.50;;;;;;5009524;28;1902;-70
2022/10/31 13:39:41;;;;;;;;;;;15.20;93.50;;;;;;5002884;28;1532;-70
2022/10/31 13:42:12;;;;;;;;;;;15.20;93.70;;;;;;5008914;28;1303;-70
2022/10/31 13:44:40;;;;;;;;;;;15.20;93.60;;;;;;5011205;28;1472;-70
2022/10/31 13:47:21;;;;;;;;;;;15.30;93.70;;;;;;5015350;28;1584;-71
2022/10/31 13:49:49;;;;;;;;;;;15.50;93.70;;;;;;5023347;28;2096;-70
2022/10/31 13:52:24;;;;;;;;;;;15.50;93.30;;;;;;5014879;28;1267;-68
2022/10/31 13:54:55;;;;;;;;;;;15.60;93.20;;;;;;5013247;28;957;-70
2022/10/31 13:57:28;;;;;;;;;;;15.60;93.00;;;;;;5012171;28;1983;-68
2022/10/31 14:00:02;;;;;;;;;;;15.60;93.00;;;;;;5010287;28;1857;-69
2022/10/31 14:02:31;;;;;;;;;;;15.50;92.90;;;;;;5012855;28;1639;-69
2022/10/31 14:05:00;;;;;;;;;;;15.40;93.00;;;;;;5005531;28;1330;-68
2022/10/31 14:07:30;;;;;;;;;;;15.30;93.10;;;;;;5009908;28;1006;-68
2022/10/31 14:09:59;;;;;;;;;;;15.30;93.10;;;;;;5011357;28;2422;-68
2022/10/31 14:12:29;;;;;;;;;;;15.30;93.40;;;;;;5008087;28;1268;-69
2022/10/31 14:14:59;;;;;;;;;;;15.30;93.30;;;;;;5008782;28;1049;-68
2022/10/31 14:17:29;;;;;;;;;;;15.30;93.40;;;;;;5015393;28;1918;-67
2022/10/31 14:19:59;;;;;;;;;;;15.30;93.30;;;;;;5017699;28;1086;-68
2022/10/31 14:22:31;;;;;;;;;;;15.20;93.20;;;;;;5010175;28;1276;-67
2022/10/31 14:25:01;;;;;;;;;;;15.20;93.10;;;;;;5013761;28;1084;-67
2022/10/31 14:27:45;;;;;;;;;;;15.20;93.30;;;;;;5009793;28;1619;-67
2022/10/31 14:30:22;;;;;;;;;;;15.20;93.30;;;;;;5006133;28;998;-68
2022/10/31 14:32:51;;;;;;;;;;;15.10;93.40;;;;;;5010233;28;1272;-67
2022/10/31 14:35:20;;;;;;;;;;;15.00;93.30;;;;;;5009150;28;962;-69
2022/10/31 14:38:03;;;;;;;;;;;15.00;93.50;;;;;;5007548;28;1910;-71
2022/10/31 14:40:36;;;;;;;;;;;14.90;93.60;;;;;;5006228;28;1221;-69
2022/10/31 14:43:17;;;;;;;;;;;14.90;93.80;;;;;;5008875;28;879;-69
2022/10/31 14:45:48;;;;;;;;;;;14.90;93.90;;;;;;5009877;28;1068;-68
2022/10/31 14:48:25;;;;;;;;;;;14.90;93.80;;;;;;5009454;28;997;-68
2022/10/31 14:50:53;;;;;;;;;;;14.90;93.90;;;;;;5009901;28;1544;-68
2022/10/31 14:53:24;;;;;;;;;;;14.90;93.80;;;;;;5011245;28;1192;-67
2022/10/31 14:55:53;;;;;;;;;;;14.90;94.10;;;;;;5009936;28;1588;-70
2022/10/31 14:58:22;;;;;;;;;;;15.00;93.90;;;;;;5009926;28;1918;-67
2022/10/31 15:00:54;;;;;;;;;;;15.00;93.80;;;;;;5005070;28;1496;-67
2022/10/31 15:03:25;;;;;;;;;;;14.90;94.00;;;;;;5010926;28;1009;-68
2022/10/31 15:05:54;;;;;;;;;;;14.80;94.10;;;;;;5010988;28;1025;-68
2022/10/31 15:08:32;;;;;;;;;;;14.80;94.20;;;;;;5008045;28;1148;-68
2022/10/31 15:11:03;;;;;;;;;;;14.80;94.20;;;;;;5006769;28;1707;-68
2022/10/31 15:13:31;;;;;;;;;;;14.70;94.30;;;;;;5003040;28;1014;-68
2022/10/31 15:15:59;;;;;;;;;;;14.80;94.40;;;;;;5002931;28;1033;-68
2022/10/31 15:18:27;;;;;;;;;;;14.70;94.40;;;;;;5007068;28;2052;-68